Time;durP1;ratioP1;P1;durP2;ratioP2;P2;SDS_P1;SDS_P2;PMS_P1;PMS_P2;Temp;Humidity;BMP_temperature;BMP_pressure;BME280_temperature;BME280_humidity;BME280_pressure;Samples;Min_cycle;Max_cycle;Signal;HPM_P1;HPM_P2
2021/06/04 00:00:32;;;;;;;23.10;21.40;;;;;;;20.06;70.00;101733.63;5051239;28;20233;-70
2021/06/04 00:03:10;;;;;;;22.50;20.57;;;;;;;19.98;69.68;101731.06;5044163;28;20566;-69
2021/06/04 00:05:39;;;;;;;23.43;21.43;;;;;;;20.08;69.98;101731.84;5037501;28;20470;-70
2021/06/04 00:08:05;;;;;;;23.50;21.47;;;;;;;20.06;69.68;101730.09;5039025;28;20419;-70
2021/06/04 00:10:37;;;;;;;24.60;22.50;;;;;;;20.15;69.70;101728.19;5039625;28;20428;-70
2021/06/04 00:13:33;;;;;;;22.83;20.83;;;;;;;20.10;69.80;101735.31;5037487;28;20516;-70
2021/06/04 00:16:07;;;;;;;23.70;21.80;;;;;;;20.38;68.22;101726.97;5037640;28;20409;-69
2021/06/04 00:18:34;;;;;;;23.80;21.80;;;;;;;20.33;68.36;101736.75;5038170;28;20481;-69
2021/06/04 00:21:00;;;;;;;22.87;21.07;;;;;;;20.17;69.11;101736.09;5039294;28;20415;-70
2021/06/04 00:23:26;;;;;;;22.17;20.40;;;;;;;20.13;68.71;101737.94;5037271;28;20472;-70
2021/06/04 00:25:51;;;;;;;23.77;21.87;;;;;;;20.03;69.24;101737.16;5037454;28;20506;-69
2021/06/04 00:28:17;;;;;;;25.37;23.20;;;;;;;20.24;68.63;101731.59;5037416;28;20170;-69
2021/06/04 00:30:42;;;;;;;22.93;21.13;;;;;;;20.18;68.57;101727.28;5040501;28;20169;-69
2021/06/04 00:33:07;;;;;;;25.37;23.27;;;;;;;20.25;68.65;101733.34;5041150;28;20205;-69
2021/06/04 00:35:35;;;;;;;23.63;21.73;;;;;;;20.24;68.29;101734.25;5041210;28;20170;-69
2021/06/04 00:38:01;;;;;;;23.60;21.60;;;;;;;20.32;68.02;101735.91;5042028;28;20431;-69
2021/06/04 00:40:30;;;;;;;23.87;21.97;;;;;;;20.46;67.59;101733.03;5042523;28;20443;-69
2021/06/04 00:42:57;;;;;;;22.80;20.83;;;;;;;20.16;69.19;101732.59;5041001;28;20478;-69
2021/06/04 00:45:26;;;;;;;24.27;22.33;;;;;;;20.04;69.32;101732.78;5052680;28;20395;-70
2021/06/04 00:47:52;;;;;;;23.60;21.67;;;;;;;20.25;68.47;101733.34;5061142;28;20474;-70
2021/06/04 00:50:24;;;;;;;24.30;22.33;;;;;;;20.12;68.72;101736.19;5058690;28;20765;-70
2021/06/04 00:52:50;;;;;;;23.03;21.17;;;;;;;20.15;68.88;101736.13;5059462;28;20504;-70
2021/06/04 00:55:19;;;;;;;24.50;22.50;;;;;;;20.03;68.91;101731.88;5060941;28;20483;-70
2021/06/04 00:57:44;;;;;;;24.73;22.67;;;;;;;20.24;68.41;101728.94;5061093;28;20166;-70
2021/06/04 01:00:25;;;;;;;23.33;21.63;;;;;;;20.24;68.47;101726.31;5046669;28;20673;-71
2021/06/04 01:02:52;;;;;;;25.47;23.47;;;;;;;20.23;68.57;101724.53;5059916;28;20185;-70
2021/06/04 01:05:19;;;;;;;25.80;23.40;;;;;;;19.94;68.91;101724.06;5060880;28;20408;-69
2021/06/04 01:08:03;;;;;;;24.33;22.43;;;;;;;19.66;70.36;101726.16;5059737;28;20437;-70
2021/06/04 01:10:49;;;;;;;23.93;21.90;;;;;;;19.99;69.62;101727.53;5059720;28;20433;-70
2021/06/04 01:13:19;;;;;;;24.23;22.30;;;;;;;20.11;68.86;101729.13;5060260;28;20520;-70
2021/06/04 01:15:56;;;;;;;25.60;23.53;;;;;;;20.17;69.33;101722.88;5059904;28;20401;-69
2021/06/04 01:18:36;;;;;;;25.23;23.23;;;;;;;20.34;68.97;101719.97;5055884;28;20866;-70
2021/06/04 01:21:06;;;;;;;27.00;24.80;;;;;;;20.03;70.33;101723.94;5043160;28;20440;-69
2021/06/04 01:24:02;;;;;;;25.30;23.20;;;;;;;19.66;70.81;101726.16;5046480;28;20398;-69
2021/06/04 01:26:38;;;;;;;25.67;23.57;;;;;;;19.77;70.31;101721.63;5060248;28;20412;-70
2021/06/04 01:29:12;;;;;;;25.23;23.23;;;;;;;20.07;70.18;101713.31;5058911;28;20708;-69
2021/06/04 01:31:47;;;;;;;25.73;23.50;;;;;;;20.17;70.07;101714.94;5044432;28;20552;-70
2021/06/04 01:34:21;;;;;;;27.40;25.13;;;;;;;20.01;70.12;101714.25;5039578;28;20387;-70
2021/06/04 01:36:57;;;;;;;27.07;24.87;;;;;;;20.04;69.93;101716.91;5039424;28;20413;-69
2021/06/04 01:39:28;;;;;;;25.50;23.50;;;;;;;19.16;72.46;101729.38;5039096;28;20436;-69
2021/06/04 01:41:55;;;;;;;24.50;22.60;;;;;;;19.83;70.94;101721.56;5038809;28;20420;-69
2021/06/04 01:44:28;;;;;;;24.63;22.73;;;;;;;19.97;70.66;101717.84;5039943;28;20399;-68
2021/06/04 01:46:59;;;;;;;25.30;23.20;;;;;;;19.83;71.01;101705.69;5051621;28;20424;-69
2021/06/04 01:49:26;;;;;;;26.10;24.10;;;;;;;19.84;71.32;101715.38;5059212;28;20395;-69
2021/06/04 01:51:57;;;;;;;26.23;24.23;;;;;;;19.98;70.51;101703.72;5058747;28;20459;-69
2021/06/04 01:54:28;;;;;;;24.03;22.13;;;;;;;20.10;69.77;101705.34;5042144;28;20532;-69
2021/06/04 01:56:57;;;;;;;25.97;23.93;;;;;;;20.07;70.14;101702.75;5039056;28;20421;-69
2021/06/04 01:59:27;;;;;;;26.33;24.33;;;;;;;19.83;70.84;101699.53;5038904;28;20468;-69
2021/06/04 02:01:53;;;;;;;26.53;24.50;;;;;;;20.01;70.09;101701.94;5039957;28;20425;-70
2021/06/04 02:04:37;;;;;;;26.70;24.60;;;;;;;20.00;69.87;101708.09;5041501;28;20432;-70
2021/06/04 02:07:05;;;;;;;26.40;23.93;;;;;;;19.10;72.45;101710.94;5039659;28;20318;-70
2021/06/04 02:09:31;;;;;;;27.13;24.83;;;;;;;19.47;71.75;101707.88;5039498;28;20410;-69
2021/06/04 02:11:56;;;;;;;24.33;22.33;;;;;;;19.83;70.60;101705.69;5039346;28;20435;-69
2021/06/04 02:14:27;;;;;;;27.10;24.60;;;;;;;19.66;71.20;101710.28;5039169;28;20232;-69
2021/06/04 02:17:10;;;;;;;28.53;25.97;;;;;;;19.99;70.52;101700.19;5039264;28;20587;-69
2021/06/04 02:20:00;;;;;;;25.30;23.10;;;;;;;19.12;72.84;101706.50;5038467;28;20445;-69
2021/06/04 02:22:35;;;;;;;26.33;24.13;;;;;;;19.53;71.38;101697.22;5038423;28;20431;-69
2021/06/04 02:25:01;;;;;;;25.40;23.30;;;;;;;19.36;72.07;101701.84;5047271;28;20442;-69
2021/06/04 02:27:44;;;;;;;26.13;23.93;;;;;;;19.13;72.83;101697.69;5058726;28;20386;-69
2021/06/04 02:30:57;;;;;;;26.47;24.07;;;;;;;19.06;73.46;101696.00;5056959;28;20269;-69
2021/06/04 02:33:27;;;;;;;27.10;25.00;;;;;;;19.32;72.59;101694.84;5024888;28;20448;-70
2021/06/04 02:36:04;;;;;;;26.70;24.60;;;;;;;19.53;71.29;101693.72;5029787;28;20642;-69
2021/06/04 02:38:35;;;;;;;27.83;25.40;;;;;;;19.34;71.99;101695.69;5038465;28;20421;-70
2021/06/04 02:41:25;;;;;;;26.13;23.93;;;;;;;18.94;73.44;101691.75;5037803;28;20419;-70
2021/06/04 02:43:54;;;;;;;27.30;25.20;;;;;;;19.49;71.98;101690.22;5038506;28;20697;-70
2021/06/04 02:46:29;;;;;;;28.27;26.10;;;;;;;19.48;71.51;101693.78;5039036;28;20533;-70
2021/06/04 02:48:55;;;;;;;28.10;25.97;;;;;;;19.12;72.76;101689.75;5049426;28;20435;-69
2021/06/04 02:51:31;;;;;;;27.20;25.10;;;;;;;18.63;74.78;101688.44;5056684;28;20425;-69
2021/06/04 02:54:09;;;;;;;27.77;25.40;;;;;;;18.77;74.00;101694.50;5058452;28;20170;-69
2021/06/04 02:56:37;;;;;;;28.97;26.57;;;;;;;18.35;75.32;101692.19;5040377;28;20557;-69
2021/06/04 02:59:07;;;;;;;28.13;26.03;;;;;;;18.49;75.40;101691.22;5058449;28;20406;-69
2021/06/04 03:01:35;;;;;;;26.57;24.53;;;;;;;18.41;75.77;101685.97;5057205;28;20411;-70
2021/06/04 03:04:02;;;;;;;27.53;25.17;;;;;;;18.44;75.17;101685.97;5049962;28;20719;-69
2021/06/04 03:06:36;;;;;;;27.50;25.20;;;;;;;18.20;75.80;101688.78;5054449;28;20432;-70
2021/06/04 03:09:05;;;;;;;26.20;23.87;;;;;;;18.49;74.76;101694.72;5056486;28;20413;-69
2021/06/04 03:11:32;;;;;;;26.80;24.60;;;;;;;18.07;76.22;101690.63;5057998;28;20913;-70
2021/06/04 03:13:59;;;;;;;28.23;25.83;;;;;;;18.12;76.39;101695.00;5056325;28;20398;-70
2021/06/04 03:16:26;;;;;;;27.97;25.57;;;;;;;18.08;76.06;101688.00;5058272;28;20383;-70
2021/06/04 03:18:57;;;;;;;28.00;25.73;;;;;;;18.15;75.94;101691.47;5043995;28;20411;-70
2021/06/04 03:21:31;;;;;;;27.17;25.07;;;;;;;18.98;72.92;101687.28;5037836;28;20465;-69
2021/06/04 03:23:58;;;;;;;29.53;27.13;;;;;;;18.55;73.37;101688.53;5038198;28;20392;-69
2021/06/04 03:26:26;;;;;;;27.03;24.83;;;;;;;18.27;74.32;101690.50;5038753;28;20710;-69
2021/06/04 03:28:53;;;;;;;27.13;24.87;;;;;;;18.38;74.29;101693.06;5041117;28;20431;-69
2021/06/04 03:31:21;;;;;;;23.10;21.20;;;;;;;18.18;74.47;101691.44;5037826;28;20453;-70
2021/06/04 03:33:46;;;;;;;25.73;23.73;;;;;;;17.94;74.59;101690.72;5038249;28;20670;-70
2021/06/04 03:36:19;;;;;;;25.67;23.67;;;;;;;18.39;73.10;101702.72;5037295;28;20420;-70
2021/06/04 03:38:45;;;;;;;24.43;22.43;;;;;;;18.42;73.05;101700.09;5039558;28;20174;-69
2021/06/04 03:41:13;;;;;;;24.40;22.50;;;;;;;18.16;73.80;101707.28;5038444;28;20387;-69
2021/06/04 03:43:38;;;;;;;24.77;22.77;;;;;;;18.92;70.80;101705.84;5049196;28;20515;-70
2021/06/04 03:46:04;;;;;;;24.37;22.47;;;;;;;18.84;71.01;101705.88;5057745;28;20729;-69
2021/06/04 03:48:32;;;;;;;24.27;22.37;;;;;;;18.71;71.88;101710.38;5049335;28;20166;-70
2021/06/04 03:51:00;;;;;;;23.67;21.77;;;;;;;19.32;68.92;101714.25;5040467;28;20265;-69
2021/06/04 03:53:26;;;;;;;21.90;20.10;;;;;;;19.12;69.01;101729.41;5037617;28;20756;-69
2021/06/04 03:55:53;;;;;;;21.40;19.70;;;;;;;19.23;68.46;101718.72;5037814;28;20383;-70
2021/06/04 03:58:19;;;;;;;22.17;20.17;;;;;;;19.21;68.59;101717.88;5038918;28;20828;-69
2021/06/04 04:00:51;;;;;;;20.33;18.73;;;;;;;19.51;67.33;101712.25;5037896;28;20422;-69
2021/06/04 04:03:18;;;;;;;21.30;19.70;;;;;;;20.40;65.24;101711.91;5036794;28;20440;-69
2021/06/04 04:05:44;;;;;;;17.57;16.17;;;;;;;18.92;68.59;101722.56;5038371;28;20672;-69
2021/06/04 04:08:11;;;;;;;17.97;16.67;;;;;;;20.05;65.55;101712.47;5041664;28;20816;-69
2021/06/04 04:10:36;;;;;;;17.30;15.70;;;;;;;21.56;60.23;101699.28;5043568;28;20443;-70
2021/06/04 04:13:03;;;;;;;16.30;14.67;;;;;;;22.13;58.07;101698.00;5041325;28;20456;-69
2021/06/04 04:15:29;;;;;;;15.37;14.10;;;;;;;22.33;57.07;101699.34;5041814;28;20568;-69
2021/06/04 04:17:58;;;;;;;14.50;13.30;;;;;;;22.27;56.47;101699.47;5041411;28;20447;-69
2021/06/04 04:20:31;;;;;;;16.10;14.80;;;;;;;23.10;54.21;101696.50;5043581;28;20447;-71
2021/06/04 04:22:57;;;;;;;14.10;13.07;;;;;;;23.43;53.62;101694.69;5041366;28;20423;-70
2021/06/04 04:25:26;;;;;;;14.97;13.77;;;;;;;23.90;52.00;101694.22;5043017;28;20507;-69
2021/06/04 04:27:51;;;;;;;13.43;12.33;;;;;;;22.90;53.71;101697.91;5046903;28;20444;-69
2021/06/04 04:30:18;;;;;;;14.00;13.00;;;;;;;22.75;54.80;101699.19;5042876;28;20483;-70
2021/06/04 04:32:44;;;;;;;14.93;13.57;;;;;;;23.79;51.68;101691.88;5040966;28;20222;-70
2021/06/04 04:35:14;;;;;;;14.27;13.07;;;;;;;24.57;50.42;101694.75;5041063;28;20424;-69
2021/06/04 04:37:39;;;;;;;35.80;32.17;;;;;;;25.28;48.71;101692.28;5041158;28;20261;-70
2021/06/04 04:40:07;;;;;;;12.07;11.17;;;;;;;23.37;51.48;101700.22;5052087;28;20527;-69
2021/06/04 04:42:32;;;;;;;28.53;25.90;;;;;;;24.50;49.94;101692.28;5070144;28;20542;-70
2021/06/04 04:44:57;;;;;;;16.50;14.80;;;;;;;24.91;48.34;101691.81;5061428;28;20419;-70
2021/06/04 04:47:24;;;;;;;11.73;10.77;;;;;;;22.41;55.02;101694.72;5067446;28;20184;-71
2021/06/04 04:49:49;;;;;;;38.43;34.37;;;;;;;23.55;52.44;101694.31;5064201;28;20185;-70
2021/06/04 04:52:15;;;;;;;12.83;11.67;;;;;;;22.85;53.98;101698.03;5061183;28;20447;-71
2021/06/04 04:54:42;;;;;;;12.93;11.90;;;;;;;23.66;51.55;101696.66;5061058;28;20172;-70
2021/06/04 04:57:08;;;;;;;14.30;13.10;;;;;;;24.79;49.12;101689.56;5060790;28;20168;-71
2021/06/04 04:59:35;;;;;;;14.67;13.50;;;;;;;24.88;48.78;101690.13;5061163;28;20404;-70
2021/06/04 05:02:01;;;;;;;17.70;16.20;;;;;;;25.37;46.97;101691.94;5058734;28;20489;-70
2021/06/04 05:04:26;;;;;;;11.60;10.50;;;;;;;23.45;51.80;101703.53;5053490;28;20715;-71
2021/06/04 05:06:52;;;;;;;11.60;10.80;;;;;;;23.29;52.48;101703.09;5056932;28;20181;-71
2021/06/04 05:09:18;;;;;;;11.00;10.10;;;;;;;23.83;50.68;101697.97;5060519;28;20196;-70
2021/06/04 05:11:45;;;;;;;11.10;10.20;;;;;;;23.24;51.51;101704.13;5049458;28;20766;-70
2021/06/04 05:14:10;;;;;;;12.00;10.90;;;;;;;22.44;53.67;101699.09;5040827;28;20186;-70
2021/06/04 05:16:36;;;;;;;11.23;10.30;;;;;;;23.38;50.98;101701.94;5053432;28;20439;-71
2021/06/04 05:19:01;;;;;;;12.60;11.50;;;;;;;24.60;48.12;101694.63;5045885;28;20197;-70
2021/06/04 05:21:27;;;;;;;16.80;15.13;;;;;;;25.21;47.39;101687.16;5046344;28;20213;-70
2021/06/04 05:23:54;;;;;;;13.60;9.80;;;;;;;23.12;50.06;101707.97;5046065;28;20280;-70
2021/06/04 05:26:19;;;;;;;10.60;9.60;;;;;;;22.34;52.06;101712.59;5058032;28;20343;-71
2021/06/04 05:28:45;;;;;;;10.97;10.00;;;;;;;23.22;50.67;101706.84;5060638;28;20502;-69
2021/06/04 05:31:12;;;;;;;10.97;10.13;;;;;;;22.73;50.95;101708.97;5059847;28;20303;-70
2021/06/04 05:33:40;;;;;;;11.57;10.37;;;;;;;22.84;51.07;101706.94;5059949;28;20218;-70
2021/06/04 05:36:08;;;;;;;10.53;9.73;;;;;;;23.88;48.36;101704.00;5047541;28;20421;-70
2021/06/04 05:38:34;;;;;;;11.80;10.63;;;;;;;24.12;47.01;101697.06;5040114;28;20794;-69
2021/06/04 05:40:59;;;;;;;10.97;9.97;;;;;;;25.04;44.43;101694.91;5039912;28;20532;-70
2021/06/04 05:43:28;;;;;;;11.27;9.93;;;;;;;22.98;48.97;101706.53;5040448;28;20169;-70
2021/06/04 05:45:54;;;;;;;11.40;9.77;;;;;;;23.46;48.02;101707.03;5045834;28;20188;-71
2021/06/04 05:48:20;;;;;;;10.47;9.57;;;;;;;25.00;44.29;101696.81;5059649;28;20810;-71
2021/06/04 05:50:48;;;;;;;10.03;9.23;;;;;;;27.73;38.40;101681.19;5059893;28;20467;-70
2021/06/04 05:53:19;;;;;;;10.50;9.50;;;;;;;25.52;43.30;101694.06;5046986;28;20717;-69
2021/06/04 05:55:44;;;;;;;10.00;9.20;;;;;;;25.35;42.88;101696.50;5039644;28;20409;-71
2021/06/04 05:58:13;;;;;;;10.70;9.80;;;;;;;25.10;43.71;101697.38;5039880;28;20409;-70
2021/06/04 06:00:43;;;;;;;10.50;9.50;;;;;;;25.62;41.79;101696.38;5039541;28;20221;-71
2021/06/04 06:03:11;;;;;;;11.50;10.50;;;;;;;27.84;37.51;101692.25;5049812;28;20490;-70
2021/06/04 06:05:36;;;;;;;11.43;10.43;;;;;;;26.22;40.00;101702.94;5045442;28;20768;-70
2021/06/04 06:08:02;;;;;;;10.20;9.17;;;;;;;26.28;41.40;101704.47;5039299;28;20449;-70
2021/06/04 06:10:27;;;;;;;9.60;8.87;;;;;;;27.28;38.16;101707.34;5046767;28;20447;-71
2021/06/04 06:12:54;;;;;;;10.23;9.23;;;;;;;26.89;38.65;101705.50;5051024;28;20210;-71
2021/06/04 06:15:21;;;;;;;9.37;8.57;;;;;;;28.49;35.57;101702.50;5049263;28;20208;-73
2021/06/04 06:17:47;;;;;;;9.97;9.07;;;;;;;25.00;42.61;101725.28;5055617;28;20463;-75
2021/06/04 06:20:14;;;;;;;9.57;8.57;;;;;;;28.27;36.73;101704.56;5052700;28;20535;-74
2021/06/04 06:22:40;;;;;;;8.80;8.10;;;;;;;29.62;33.59;101699.31;5062409;28;20562;-70
2021/06/04 06:25:08;;;;;;;9.20;8.43;;;;;;;31.11;31.14;101713.13;5052359;28;20495;-74
2021/06/04 06:27:34;;;;;;;9.53;8.63;;;;;;;30.37;32.08;101704.91;5043600;28;20882;-74
2021/06/04 06:29:59;;;;;;;9.10;8.30;;;;;;;27.96;35.63;101712.25;5043161;28;20437;-71
2021/06/04 06:32:24;;;;;;;9.53;8.60;;;;;;;27.39;37.26;101725.63;5048034;28;20205;-72
2021/06/04 06:34:50;;;;;;;9.60;8.80;;;;;;;28.53;35.06;101704.09;5045750;28;20449;-71
2021/06/04 06:37:19;;;;;;;9.30;8.50;;;;;;;28.15;35.25;101706.88;5049951;28;20292;-71
2021/06/04 06:39:44;;;;;;;9.27;8.40;;;;;;;29.29;33.70;101705.56;5048053;28;20271;-71
2021/06/04 06:42:10;;;;;;;10.57;9.63;;;;;;;30.35;32.09;101706.84;5045165;28;20444;-70
2021/06/04 06:44:36;;;;;;;9.57;8.77;;;;;;;29.82;32.17;101713.44;5057122;28;20177;-71
2021/06/04 06:47:01;;;;;;;8.83;7.93;;;;;;;30.03;32.64;101714.94;5052623;28;20181;-71
2021/06/04 06:49:27;;;;;;;9.80;8.80;;;;;;;30.69;31.46;101714.75;5047423;28;20207;-71
2021/06/04 06:51:53;;;;;;;10.47;9.60;;;;;;;27.89;36.34;101711.66;5057965;28;20209;-71
2021/06/04 06:54:24;;;;;;;8.97;8.27;;;;;;;28.42;35.64;101722.56;5058203;28;20570;-72
2021/06/04 06:56:53;;;;;;;9.30;8.70;;;;;;;30.23;32.48;101713.78;5056694;28;20415;-72
2021/06/04 06:59:20;;;;;;;9.47;8.77;;;;;;;31.06;30.89;101718.78;5043832;28;20652;-72
2021/06/04 07:01:46;;;;;;;13.03;8.03;;;;;;;32.26;28.63;101708.53;5057037;28;20517;-71
2021/06/04 07:04:11;;;;;;;8.90;8.10;;;;;;;30.20;31.91;101721.16;5049595;28;20838;-71
2021/06/04 07:06:39;;;;;;;9.40;8.60;;;;;;;30.01;32.46;101727.63;5040451;28;20192;-71
2021/06/04 07:09:07;;;;;;;11.50;8.50;;;;;;;31.50;30.11;101716.06;5037963;28;20239;-71
2021/06/04 07:11:35;;;;;;;9.73;8.83;;;;;;;32.69;28.10;101716.41;5041926;28;20469;-71
2021/06/04 07:14:01;;;;;;;9.20;8.30;;;;;;;30.76;30.96;101726.88;5040797;28;20455;-71
2021/06/04 07:16:27;;;;;;;9.47;8.57;;;;;;;28.52;35.38;101731.00;5038564;28;20527;-70
2021/06/04 07:18:52;;;;;;;9.20;8.50;;;;;;;29.16;33.98;101726.81;5038035;28;20179;-70
2021/06/04 07:21:21;;;;;;;9.47;7.80;;;;;;;30.68;31.33;101718.41;5056715;28;20181;-70
2021/06/04 07:23:47;;;;;;;9.07;8.30;;;;;;;29.63;32.36;101724.34;5056962;28;20181;-70
2021/06/04 07:26:12;;;;;;;9.07;7.73;;;;;;;30.97;30.87;101723.84;5072849;28;20459;-75
2021/06/04 07:28:39;;;;;;;8.87;8.17;;;;;;;29.69;32.40;101727.56;5068211;28;20439;-71
2021/06/04 07:31:08;;;;;;;8.83;8.10;;;;;;;29.42;33.06;101729.06;5058016;28;20207;-71
2021/06/04 07:33:37;;;;;;;9.33;8.53;;;;;;;32.84;28.12;101723.50;5057758;28;20527;-71
2021/06/04 07:36:07;;;;;;;8.50;7.77;;;;;;;31.42;29.02;101735.44;5057707;28;20409;-71
2021/06/04 07:38:33;;;;;;;8.70;8.00;;;;;;;31.64;29.18;101724.19;5058165;28;20415;-71
2021/06/04 07:40:59;;;;;;;8.30;7.60;;;;;;;32.90;28.43;101720.34;5040737;28;20437;-70
2021/06/04 07:43:29;;;;;;;8.33;7.73;;;;;;;32.52;28.10;101715.72;5051315;28;20448;-69
2021/06/04 07:45:56;;;;;;;8.20;7.40;;;;;;;32.49;29.15;101720.47;5045863;28;20186;-69
2021/06/04 07:48:22;;;;;;;9.17;8.17;;;;;;;31.22;29.60;101734.00;5037361;28;20409;-69
2021/06/04 07:50:53;;;;;;;7.90;7.20;;;;;;;32.56;27.41;101729.88;5037919;28;20789;-69
2021/06/04 07:53:22;;;;;;;8.80;8.03;;;;;;;33.58;26.68;101720.97;5037507;28;20198;-68
2021/06/04 07:55:48;;;;;;;7.77;7.17;;;;;;;32.56;28.03;101727.19;5036635;28;20413;-69
2021/06/04 07:58:14;;;;;;;9.93;7.30;;;;;;;32.62;27.29;101725.91;5037236;28;20417;-69
2021/06/04 08:00:39;;;;;;;8.40;7.80;;;;;;;31.64;28.65;101734.13;5037378;28;20174;-70
2021/06/04 08:03:06;;;;;;;9.20;7.40;;;;;;;33.31;27.42;101736.47;5037489;28;20388;-69
2021/06/04 08:05:32;;;;;;;8.80;7.87;;;;;;;33.07;26.91;101734.50;5037354;28;20170;-69
2021/06/04 08:07:58;;;;;;;9.07;8.37;;;;;;;34.06;24.87;101732.88;5037202;28;20413;-69
2021/06/04 08:10:24;;;;;;;8.30;7.60;;;;;;;31.23;29.34;101743.81;5038001;28;20496;-68
2021/06/04 08:12:50;;;;;;;8.30;7.57;;;;;;;30.51;30.07;101743.63;5037188;28;20190;-69
2021/06/04 08:15:23;;;;;;;8.57;7.97;;;;;;;28.75;33.01;101754.00;5037284;28;20174;-69
2021/06/04 08:17:49;;;;;;;9.63;8.83;;;;;;;29.21;32.77;101751.63;5037467;28;20175;-69
2021/06/04 08:20:22;;;;;;;9.30;8.40;;;;;;;30.19;31.94;101744.50;5050100;28;20450;-69
2021/06/04 08:22:48;;;;;;;10.87;8.30;;;;;;;32.28;28.25;101737.13;5056960;28;20201;-69
2021/06/04 08:25:14;;;;;;;9.90;8.20;;;;;;;31.95;28.37;101746.47;5064026;28;20741;-70
2021/06/04 08:27:40;;;;;;;8.73;7.77;;;;;;;33.37;26.63;101722.53;5077010;28;20801;-69
2021/06/04 08:30:08;;;;;;;8.63;7.93;;;;;;;32.12;28.54;101722.91;5077399;28;20430;-69
2021/06/04 08:32:33;;;;;;;9.53;8.57;;;;;;;32.62;27.58;101723.19;5077021;28;20219;-68
2021/06/04 08:34:59;;;;;;;9.47;8.70;;;;;;;32.07;29.36;101721.38;5077137;28;20450;-68
2021/06/04 08:37:25;;;;;;;9.37;8.67;;;;;;;31.58;29.47;101724.53;5077581;28;20177;-69
2021/06/04 08:39:50;;;;;;;9.40;8.70;;;;;;;32.65;27.45;101726.56;5077139;28;20251;-69
2021/06/04 08:42:27;;;;;;;9.13;8.33;;;;;;;32.33;28.12;101726.06;5076810;28;20213;-70
2021/06/04 08:45:12;;;;;;;8.33;7.73;;;;;;;33.31;26.23;101714.84;5077080;28;20466;-70
2021/06/04 08:47:40;;;;;;;8.50;7.73;;;;;;;32.63;28.12;101733.03;5047313;28;20523;-70
2021/06/04 08:50:28;;;;;;;8.57;7.90;;;;;;;34.18;25.61;101726.53;5038609;28;20432;-69
2021/06/04 08:53:22;;;;;;;8.17;7.47;;;;;;;33.52;26.29;101718.72;5044246;28;20452;-71
2021/06/04 08:56:01;;;;;;;9.27;8.57;;;;;;;33.35;26.13;101717.22;5041645;28;20446;-69
2021/06/04 08:58:44;;;;;;;8.37;7.83;;;;;;;33.21;26.88;101717.31;5074755;28;20212;-68
2021/06/04 09:01:22;;;;;;;8.77;8.10;;;;;;;32.66;27.63;101714.78;5055361;28;20478;-68
2021/06/04 09:04:06;;;;;;;7.93;7.27;;;;;;;30.05;31.15;101720.22;5058944;28;20445;-70
2021/06/04 09:06:42;;;;;;;7.57;7.07;;;;;;;33.26;27.64;101708.91;5056405;28;20466;-69
2021/06/04 09:09:15;;;;;;;7.80;7.10;;;;;;;34.10;26.45;101706.44;5038444;28;20495;-68
2021/06/04 09:11:40;;;;;;;7.70;7.10;;;;;;;35.04;24.07;101707.38;5045123;28;20710;-68
2021/06/04 09:14:07;;;;;;;7.93;7.30;;;;;;;31.36;28.81;101719.66;5056708;28;20446;-68
2021/06/04 09:16:47;;;;;;;8.60;7.70;;;;;;;34.58;25.05;101706.41;5048330;28;20189;-68
2021/06/04 09:19:39;;;;;;;7.77;7.07;;;;;;;34.81;23.99;101703.75;5043003;28;20885;-67
2021/06/04 09:22:06;;;;;;;9.60;7.50;;;;;;;34.37;24.83;101703.50;5052440;28;20468;-68
2021/06/04 09:24:40;;;;;;;7.50;6.50;;;;;;;34.18;24.31;101718.41;5039951;28;20583;-68
2021/06/04 09:27:23;;;;;;;7.60;6.90;;;;;;;32.61;26.41;101716.06;5079301;28;20513;-68
2021/06/04 09:30:07;;;;;;;15.30;13.73;;;;;;;33.33;25.81;101715.63;5048426;28;20872;-68
2021/06/04 09:32:33;;;;;;;7.03;6.50;;;;;;;34.68;23.46;101703.84;5056536;28;20514;-68
2021/06/04 09:35:27;;;;;;;8.33;7.60;;;;;;;32.23;27.69;101718.56;5070560;28;20501;-68
2021/06/04 09:37:53;;;;;;;8.30;7.60;;;;;;;33.86;26.06;101708.16;5049367;28;20225;-68
2021/06/04 09:40:26;;;;;;;8.27;7.43;;;;;;;34.00;25.76;101701.69;5059154;28;20724;-67
2021/06/04 09:42:53;;;;;;;7.90;7.30;;;;;;;34.93;24.80;101715.50;5045344;28;20214;-68
2021/06/04 09:45:29;;;;;;;9.27;7.50;;;;;;;35.31;23.08;101707.00;5045514;28;20479;-67
2021/06/04 09:48:07;;;;;;;8.67;7.83;;;;;;;34.40;24.57;101714.09;5048297;28;20463;-67
2021/06/04 09:50:40;;;;;;;7.00;6.30;;;;;;;33.26;25.70;101708.91;5046864;28;20455;-67
2021/06/04 09:53:14;;;;;;;6.63;6.00;;;;;;;33.47;24.97;101710.06;5042296;28;20444;-67
2021/06/04 09:55:44;;;;;;;6.30;5.80;;;;;;;33.87;23.23;101714.44;5044024;28;20451;-67
2021/06/04 09:58:13;;;;;;;6.23;5.60;;;;;;;34.23;23.37;101710.81;5053138;28;20454;-68
2021/06/04 10:01:06;;;;;;;6.63;6.03;;;;;;;34.75;23.50;101711.38;5047293;28;20459;-67
2021/06/04 10:03:41;;;;;;;7.13;6.63;;;;;;;33.49;26.17;101718.94;5038165;28;20588;-67
2021/06/04 10:06:09;;;;;;;6.57;6.07;;;;;;;34.34;23.99;101711.84;5058048;28;20414;-69
2021/06/04 10:08:46;;;;;;;7.33;6.73;;;;;;;32.06;28.07;101713.41;5052862;28;20433;-69
2021/06/04 10:11:17;;;;;;;7.23;6.50;;;;;;;31.47;29.21;101719.81;5046211;28;20844;-69
2021/06/04 10:13:48;;;;;;;7.20;6.70;;;;;;;32.03;28.80;101719.00;5056186;28;20431;-68
2021/06/04 10:16:28;;;;;;;7.40;6.70;;;;;;;33.50;26.61;101709.84;5037945;28;20424;-69
2021/06/04 10:18:54;;;;;;;7.80;7.20;;;;;;;32.99;26.56;101707.16;5040818;28;20448;-68
2021/06/04 10:21:31;;;;;;;8.20;7.50;;;;;;;35.06;23.93;101700.84;5049728;28;20440;-67
2021/06/04 10:23:57;;;;;;;8.07;7.47;;;;;;;33.06;27.53;101705.78;5039033;28;20178;-67
2021/06/04 10:26:28;;;;;;;7.73;7.10;;;;;;;35.29;23.29;101702.69;5072049;28;20430;-68
2021/06/04 10:29:13;;;;;;;7.90;7.30;;;;;;;35.29;24.16;101705.41;5054907;28;20594;-68
2021/06/04 10:31:54;;;;;;;8.03;7.33;;;;;;;34.34;25.25;101711.84;5038781;28;20412;-69
2021/06/04 10:34:48;;;;;;;9.10;8.30;;;;;;;33.81;25.45;101702.22;5044810;28;20483;-70
2021/06/04 10:37:18;;;;;;;10.10;7.97;;;;;;;33.01;27.61;101706.09;5042477;28;20441;-69
2021/06/04 10:39:49;;;;;;;8.43;7.63;;;;;;;31.69;29.38;101705.91;5038145;28;20453;-69
2021/06/04 10:42:25;;;;;;;7.63;7.00;;;;;;;31.99;29.40;101709.34;5045415;28;20468;-68
2021/06/04 10:45:19;;;;;;;9.53;7.53;;;;;;;31.43;29.63;101699.44;5037635;28;20457;-68
2021/06/04 10:48:15;;;;;;;8.80;8.10;;;;;;;30.25;31.98;101708.31;5043040;28;20522;-69
2021/06/04 10:50:45;;;;;;;8.50;7.80;;;;;;;31.41;29.72;101699.53;5057106;28;20681;-68
2021/06/04 10:53:58;;;;;;;8.37;7.57;;;;;;;32.49;27.52;101701.56;5057078;28;20435;-69
2021/06/04 10:56:34;;;;;;;7.70;7.10;;;;;;;31.83;28.40;101701.44;5035991;28;20562;-69
2021/06/04 10:59:21;;;;;;;8.10;7.50;;;;;;;32.48;27.45;101689.91;5038383;28;20409;-69
2021/06/04 11:01:52;;;;;;;7.30;6.50;;;;;;;33.33;26.57;101683.19;5037800;28;20484;-68
2021/06/04 11:04:22;;;;;;;7.33;6.83;;;;;;;32.27;27.80;101694.06;5052518;28;20720;-67
2021/06/04 11:06:47;;;;;;;9.77;6.70;;;;;;;32.27;27.99;101694.06;5039830;28;20475;-67
2021/06/04 11:09:15;;;;;;;6.63;6.13;;;;;;;31.91;28.44;101689.16;5038279;28;20448;-66
2021/06/04 11:12:28;;;;;;;6.57;6.10;;;;;;;33.19;26.54;101687.72;5044689;28;20231;-68
2021/06/04 11:15:10;;;;;;;8.20;7.50;;;;;;;30.55;30.76;101692.22;5003958;28;20449;-67
2021/06/04 11:17:42;;;;;;;7.83;7.23;;;;;;;32.34;28.53;101690.88;5027115;28;20440;-67
2021/06/04 11:20:28;;;;;;;7.47;6.77;;;;;;;32.98;27.69;101689.25;5040406;28;20444;-67
2021/06/04 11:23:11;;;;;;;9.00;8.20;;;;;;;32.11;28.20;101688.81;5039663;28;20518;-68
2021/06/04 11:25:52;;;;;;;8.13;7.53;;;;;;;31.14;30.47;101687.81;5061403;28;20478;-68
2021/06/04 11:28:17;;;;;;;9.80;9.10;;;;;;;32.68;28.03;101683.16;5036507;28;20440;-66
2021/06/04 11:30:43;;;;;;;9.07;8.17;;;;;;;32.42;28.56;101679.53;5037686;28;20668;-67
2021/06/04 11:33:18;;;;;;;9.67;8.87;;;;;;;32.65;28.46;101677.09;5037329;28;20162;-67